Time;durP1;ratioP1;P1;durP2;ratioP2;P2;SDS_P1;SDS_P2;PMS_P1;PMS_P2;Temp;Humidity;BMP_temperature;BMP_pressure;BME280_temperature;BME280_humidity;BME280_pressure;Samples;Min_cycle;Max_cycle;Signal;HPM_P1;HPM_P2
2021/04/21 00:01:06;;;;;;;6.10;5.50;;;;;;;8.07;59.39;100789.44;5059731;28;20628;-66
2021/04/21 00:03:33;;;;;;;5.10;4.60;;;;;;;7.98;60.14;100784.59;5059904;28;20696;-65
2021/04/21 00:06:01;;;;;;;5.00;4.20;;;;;;;7.90;60.00;100784.97;5057608;28;20209;-65
2021/04/21 00:08:30;;;;;;;5.30;4.60;;;;;;;7.82;60.34;100779.22;5055892;28;21672;-65
2021/04/21 00:10:58;;;;;;;6.97;4.23;;;;;;;7.76;60.02;100779.50;5053895;28;20243;-67
2021/04/21 00:13:25;;;;;;;7.37;3.97;;;;;;;7.71;60.38;100784.19;5056890;28;20221;-64
2021/04/21 00:15:51;;;;;;;5.23;4.30;;;;;;;7.66;61.02;100773.81;5054107;28;20214;-65
2021/04/21 00:18:19;;;;;;;5.97;4.40;;;;;;;7.62;61.30;100774.03;5057651;28;20233;-65
2021/04/21 00:20:52;;;;;;;6.90;5.37;;;;;;;7.58;60.89;100772.47;5053987;28;20689;-66
2021/04/21 00:23:18;;;;;;;8.30;3.97;;;;;;;7.53;61.43;100772.69;5058217;28;20210;-66
2021/04/21 00:25:45;;;;;;;5.70;4.37;;;;;;;7.48;61.20;100772.06;5055037;28;20209;-65
2021/04/21 00:28:13;;;;;;;9.90;4.33;;;;;;;7.44;61.60;100770.50;5053205;28;20711;-65
2021/04/21 00:30:41;;;;;;;5.40;4.07;;;;;;;7.40;61.36;100770.72;5049541;28;20206;-65
2021/04/21 00:33:08;;;;;;;6.67;3.73;;;;;;;7.36;61.56;100767.34;5047790;28;20683;-65
2021/04/21 00:35:37;;;;;;;6.90;3.70;;;;;;;7.33;62.15;100775.47;5052325;28;20698;-64
2021/04/21 00:38:08;;;;;;;5.30;3.53;;;;;;;7.29;61.87;100776.53;5050476;28;20231;-65
2021/04/21 00:40:41;;;;;;;5.63;3.87;;;;;;;7.23;62.18;100768.88;5058925;28;20201;-65
2021/04/21 00:43:15;;;;;;;4.27;3.47;;;;;;;7.16;62.14;100767.47;5058288;28;20209;-65
2021/04/21 00:45:46;;;;;;;6.20;4.23;;;;;;;7.10;62.54;100762.44;5058280;28;20208;-65
2021/04/21 00:48:23;;;;;;;5.13;4.63;;;;;;;7.04;62.59;100773.31;5051298;28;20213;-65
2021/04/21 00:50:55;;;;;;;7.03;5.10;;;;;;;6.98;62.83;100771.84;5059197;28;20745;-65
2021/04/21 00:53:29;;;;;;;5.83;4.30;;;;;;;6.94;62.59;100765.81;5053381;28;20339;-65
2021/04/21 00:56:02;;;;;;;6.37;4.77;;;;;;;6.88;62.92;100760.78;5050635;28;20213;-65
2021/04/21 00:58:43;;;;;;;5.80;4.80;;;;;;;6.83;62.98;100768.09;5058175;28;20594;-65
2021/04/21 01:01:11;;;;;;;7.10;4.90;;;;;;;6.80;63.29;100764.75;5056412;28;20258;-65
2021/04/21 01:03:37;;;;;;;5.77;4.33;;;;;;;6.76;63.47;100763.16;5051852;28;20209;-65
2021/04/21 01:06:07;;;;;;;5.87;4.80;;;;;;;6.71;63.41;100762.50;5058228;28;20206;-65
2021/04/21 01:08:38;;;;;;;5.43;4.83;;;;;;;6.67;63.96;100766.22;5054136;28;20222;-66
2021/04/21 01:11:09;;;;;;;7.20;4.73;;;;;;;6.63;63.70;100773.41;5056155;28;20215;-65
2021/04/21 01:13:41;;;;;;;5.80;4.73;;;;;;;6.60;64.04;100763.00;5050438;28;20589;-66
2021/04/21 01:16:09;;;;;;;5.77;4.33;;;;;;;6.54;64.28;100757.97;5057140;28;20209;-66
2021/04/21 01:18:38;;;;;;;5.63;4.70;;;;;;;6.50;64.37;100764.31;5056328;28;20233;-67
2021/04/21 01:21:08;;;;;;;4.53;3.90;;;;;;;6.47;64.36;100767.09;5053760;28;20216;-65
2021/04/21 01:23:52;;;;;;;4.43;3.70;;;;;;;6.41;64.30;100765.59;5054141;28;20196;-65
2021/04/21 01:26:26;;;;;;;5.10;3.83;;;;;;;6.34;64.20;100766.78;5049830;28;20236;-66
2021/04/21 01:28:55;;;;;;;5.43;4.13;;;;;;;6.30;64.49;100772.28;5049671;28;20237;-65
2021/04/21 01:31:23;;;;;;;6.13;3.87;;;;;;;6.27;64.82;100773.25;5045085;28;20209;-66
2021/04/21 01:33:52;;;;;;;5.90;4.50;;;;;;;6.25;64.69;100773.38;5044365;28;20248;-67
2021/04/21 01:36:22;;;;;;;6.67;4.67;;;;;;;6.24;64.92;100770.78;5049777;28;20232;-65
2021/04/21 01:38:50;;;;;;;7.40;5.37;;;;;;;6.23;65.21;100772.56;5048856;28;20588;-65
2021/04/21 01:41:20;;;;;;;7.27;5.73;;;;;;;6.19;65.34;100770.97;5051779;28;20216;-66
2021/04/21 01:43:49;;;;;;;7.73;5.50;;;;;;;6.16;65.67;100775.53;5066283;28;20201;-65
2021/04/21 01:46:18;;;;;;;7.63;5.60;;;;;;;6.13;65.76;100773.00;5053244;28;20613;-65
2021/04/21 01:48:46;;;;;;;6.10;4.93;;;;;;;6.10;65.93;100766.06;5055899;28;20221;-65
2021/04/21 01:51:18;;;;;;;8.57;5.33;;;;;;;6.07;66.07;100771.50;5060478;28;20207;-65
2021/04/21 01:53:50;;;;;;;7.17;5.37;;;;;;;6.04;66.10;100773.41;5059524;28;20206;-65
2021/04/21 01:56:19;;;;;;;5.93;4.63;;;;;;;5.99;65.70;100773.59;5059542;28;20674;-65
2021/04/21 01:59:05;;;;;;;7.23;4.70;;;;;;;5.92;65.74;100761.56;5057279;28;20237;-66
2021/04/21 02:01:42;;;;;;;6.33;5.20;;;;;;;5.85;65.68;100760.94;5056063;28;20201;-66
2021/04/21 02:04:18;;;;;;;7.30;5.40;;;;;;;5.80;65.71;100765.56;5060504;28;20248;-65
2021/04/21 02:07:01;;;;;;;7.70;5.90;;;;;;;5.74;65.86;100770.22;5054635;28;20201;-66
2021/04/21 02:09:59;;;;;;;7.30;6.00;;;;;;;5.65;65.36;100768.84;5051485;28;20210;-66
2021/04/21 02:12:53;;;;;;;7.20;6.20;;;;;;;5.56;65.45;100763.91;5052225;28;20196;-64
2021/04/21 02:15:26;;;;;;;8.80;5.77;;;;;;;5.46;65.42;100760.81;5052878;28;20201;-65
2021/04/21 02:18:01;;;;;;;11.23;5.93;;;;;;;5.37;65.33;100769.13;5062996;28;20277;-65
2021/04/21 02:20:33;;;;;;;8.43;5.37;;;;;;;5.29;66.06;100760.63;5053514;28;20576;-65
2021/04/21 02:23:07;;;;;;;8.20;5.43;;;;;;;5.24;66.02;100766.06;5053917;28;20221;-64
2021/04/21 02:25:49;;;;;;;7.43;5.93;;;;;;;5.23;66.86;100767.00;5052687;28;20247;-65
2021/04/21 02:28:24;;;;;;;7.70;5.87;;;;;;;5.22;67.08;100762.63;5058689;28;20275;-66
2021/04/21 02:30:55;;;;;;;7.43;5.90;;;;;;;5.24;67.35;100765.22;5055384;28;20209;-64
2021/04/21 02:33:31;;;;;;;7.93;5.23;;;;;;;5.24;67.45;100762.56;5056079;28;20576;-64
2021/04/21 02:36:03;;;;;;;6.57;5.00;;;;;;;5.20;67.18;100761.84;5057916;28;20201;-65
2021/04/21 02:38:32;;;;;;;4.97;4.23;;;;;;;5.15;67.07;100769.09;5059047;28;20225;-64
2021/04/21 02:41:12;;;;;;;8.00;4.90;;;;;;;5.13;67.57;100763.00;5054400;28;20213;-64
2021/04/21 02:44:04;;;;;;;8.97;5.07;;;;;;;5.11;67.20;100772.78;5053648;28;20209;-65
2021/04/21 02:46:36;;;;;;;5.60;5.10;;;;;;;5.07;67.76;100773.81;5055749;28;20208;-63
2021/04/21 02:49:21;;;;;;;7.77;5.90;;;;;;;5.05;67.28;100780.06;5053160;28;20229;-65
2021/04/21 02:51:54;;;;;;;7.07;5.30;;;;;;;5.01;67.86;100774.06;5053601;28;20217;-65
2021/04/21 02:54:23;;;;;;;8.63;5.13;;;;;;;5.01;67.98;100774.06;5054646;28;20275;-64
2021/04/21 02:56:56;;;;;;;6.17;5.50;;;;;;;4.99;67.73;100772.38;5053740;28;20221;-65
2021/04/21 02:59:31;;;;;;;8.87;5.90;;;;;;;4.96;67.97;100775.16;5054687;28;20229;-65
2021/04/21 03:02:04;;;;;;;9.43;5.57;;;;;;;4.94;67.84;100782.25;5047525;28;20205;-64
2021/04/21 03:04:37;;;;;;;7.00;5.50;;;;;;;4.89;68.01;100780.66;5054511;28;20227;-64
2021/04/21 03:07:07;;;;;;;9.77;6.07;;;;;;;4.87;67.83;100778.97;5048516;28;20241;-66
2021/04/21 03:09:40;;;;;;;6.67;4.77;;;;;;;4.82;68.20;100773.91;5053304;28;20210;-65
2021/04/21 03:12:09;;;;;;;6.73;5.17;;;;;;;4.77;68.24;100778.47;5051891;28;20206;-64
2021/04/21 03:14:36;;;;;;;10.83;5.37;;;;;;;4.73;68.01;100776.00;5052948;28;20217;-64
2021/04/21 03:17:07;;;;;;;7.57;5.20;;;;;;;4.70;68.77;100770.84;5052825;28;20682;-65
2021/04/21 03:19:39;;;;;;;9.43;5.93;;;;;;;4.69;68.40;100777.03;5061176;28;20236;-64
2021/04/21 03:22:14;;;;;;;7.97;4.87;;;;;;;4.67;68.54;100778.84;5052161;28;20198;-64
2021/04/21 03:24:45;;;;;;;7.10;6.00;;;;;;;4.64;68.94;100771.94;5050755;28;20674;-64
2021/04/21 03:27:13;;;;;;;5.20;4.70;;;;;;;4.61;68.99;100773.81;5059868;28;20206;-64
2021/04/21 03:29:41;;;;;;;7.50;5.20;;;;;;;4.56;68.63;100766.06;5046288;28;20207;-64
2021/04/21 03:32:13;;;;;;;6.50;4.67;;;;;;;4.52;69.49;100767.09;5057076;28;20208;-64
2021/04/21 03:34:42;;;;;;;9.00;5.17;;;;;;;4.49;69.40;100769.84;5060104;28;20198;-65
2021/04/21 03:37:25;;;;;;;6.63;5.50;;;;;;;4.48;69.42;100766.34;5054547;28;20220;-65
2021/04/21 03:39:51;;;;;;;7.13;5.33;;;;;;;4.46;69.24;100767.34;5113920;22;20300;-68
2021/04/21 03:42:17;;;;;;;7.60;4.97;;;;;;;4.44;69.55;100770.03;5073034;28;20205;-68
2021/04/21 03:44:43;;;;;;;6.13;5.00;;;;;;;4.41;69.27;100766.63;5090084;28;20219;-68
2021/04/21 03:47:10;;;;;;;6.13;4.83;;;;;;;4.36;69.79;100758.03;5088088;28;20196;-68
2021/04/21 03:49:37;;;;;;;5.93;4.60;;;;;;;4.32;69.97;100756.41;5072154;28;20227;-67
2021/04/21 03:52:07;;;;;;;6.10;5.30;;;;;;;4.31;69.28;100757.31;5069937;28;20239;-68
2021/04/21 03:54:34;;;;;;;8.93;5.67;;;;;;;4.27;70.08;100753.09;5068870;28;20208;-67
2021/04/21 03:57:03;;;;;;;7.50;4.43;;;;;;;4.24;69.38;100751.44;5069352;28;20220;-68
2021/04/21 03:59:32;;;;;;;8.63;4.83;;;;;;;4.20;69.60;100749.81;5070208;28;20224;-67
2021/04/21 04:02:01;;;;;;;5.33;4.33;;;;;;;4.15;69.08;100752.59;5069107;28;20228;-67
2021/04/21 04:04:31;;;;;;;5.47;4.43;;;;;;;4.11;69.32;100748.38;5066966;28;20251;-68
2021/04/21 04:07:04;;;;;;;9.27;5.13;;;;;;;4.08;70.07;100743.22;5067359;28;20654;-68
2021/04/21 04:09:34;;;;;;;5.57;4.50;;;;;;;4.06;69.04;100747.66;5067516;28;20347;-68
2021/04/21 04:12:04;;;;;;;6.97;4.80;;;;;;;4.01;68.90;100748.72;5067125;28;20209;-68
2021/04/21 04:14:32;;;;;;;14.13;5.67;;;;;;;3.96;69.12;100748.88;5067015;28;20318;-67
2021/04/21 04:17:00;;;;;;;6.90;5.13;;;;;;;3.95;69.23;100752.44;5064418;28;20208;-67
2021/04/21 04:19:27;;;;;;;7.70;5.10;;;;;;;3.94;69.37;100747.25;5067387;28;20572;-68
2021/04/21 04:21:56;;;;;;;7.20;5.47;;;;;;;3.93;69.94;100754.28;5063722;28;20201;-68
2021/04/21 04:24:25;;;;;;;5.77;5.07;;;;;;;3.93;69.88;100753.44;5068364;28;20205;-68
2021/04/21 04:26:57;;;;;;;10.47;5.43;;;;;;;3.90;69.84;100753.53;5060347;28;20217;-67
2021/04/21 04:29:24;;;;;;;7.30;5.73;;;;;;;3.89;69.85;100757.06;5066954;28;20213;-66
2021/04/21 04:31:53;;;;;;;7.50;5.43;;;;;;;3.86;70.22;100762.44;5069801;28;20205;-68
2021/04/21 04:34:22;;;;;;;7.53;5.43;;;;;;;3.81;69.81;100757.31;5068192;28;20480;-68
2021/04/21 04:36:49;;;;;;;7.87;5.80;;;;;;;3.75;69.31;100766.31;5062008;28;20257;-67
2021/04/21 04:39:15;;;;;;;7.67;6.13;;;;;;;3.69;70.43;100776.19;5064923;28;20320;-68
2021/04/21 04:41:42;;;;;;;8.00;6.00;;;;;;;3.65;70.60;100771.91;5062368;28;20197;-68
2021/04/21 04:44:10;;;;;;;6.63;5.50;;;;;;;3.65;70.88;100762.25;5064609;28;20720;-68
2021/04/21 04:46:42;;;;;;;12.60;6.90;;;;;;;3.67;70.72;100773.59;5062392;28;20573;-68
2021/04/21 04:49:09;;;;;;;9.03;6.73;;;;;;;3.71;70.86;100772.59;5059548;28;20583;-68
2021/04/21 04:51:39;;;;;;;10.13;6.07;;;;;;;3.74;71.56;100771.63;5055449;28;20202;-68
2021/04/21 04:54:06;;;;;;;7.87;6.27;;;;;;;3.76;71.00;100778.53;5059735;28;20205;-67
2021/04/21 04:56:35;;;;;;;9.50;6.40;;;;;;;3.77;71.43;100774.13;5058706;28;20202;-68
2021/04/21 04:59:03;;;;;;;12.70;6.50;;;;;;;3.79;71.91;100780.22;5054812;28;20245;-66
2021/04/21 05:01:41;;;;;;;10.40;6.43;;;;;;;3.79;71.23;100782.84;5065583;28;20201;-66
2021/04/21 05:04:13;;;;;;;8.77;6.57;;;;;;;3.80;71.34;100779.31;5065519;28;20669;-67
2021/04/21 05:06:49;;;;;;;7.50;5.87;;;;;;;3.81;71.95;100783.66;5056544;28;20220;-67
2021/04/21 05:09:17;;;;;;;8.27;5.87;;;;;;;3.80;71.87;100781.94;5058346;28;20588;-68
2021/04/21 05:11:46;;;;;;;7.67;5.40;;;;;;;3.79;71.83;100796.03;5056475;28;20288;-68
2021/04/21 05:14:16;;;;;;;10.93;5.53;;;;;;;3.80;71.85;100797.75;5056582;28;20218;-67
2021/04/21 05:17:33;;;;;;;14.00;5.93;;;;;;;3.82;72.32;100790.66;5055485;28;20202;-67
2021/04/21 05:20:38;;;;;;;6.77;5.07;;;;;;;3.89;72.69;100800.09;5055102;28;20229;-68
2021/04/21 05:23:42;;;;;;;11.03;7.30;;;;;;;3.95;72.98;100797.22;5064303;28;20574;-66
2021/04/21 05:26:33;;;;;;;49.40;24.30;;;;;;;4.02;72.70;100801.38;5059868;28;20217;-68
2021/04/21 05:29:38;;;;;;;26.63;16.40;;;;;;;4.08;72.64;100795.91;5063569;28;20216;-68
2021/04/21 05:32:58;;;;;;;15.17;9.63;;;;;;;4.18;72.75;100792.03;5066010;28;20550;-67
2021/04/21 05:36:03;;;;;;;13.17;8.80;;;;;;;4.33;72.86;100798.53;5065304;28;20270;-72
2021/04/21 05:39:01;;;;;;;8.23;7.20;;;;;;;4.50;73.81;100798.81;5062730;28;20232;-72
2021/04/21 05:42:11;;;;;;;9.87;7.53;;;;;;;4.70;73.71;100795.44;5058852;28;20223;-71
2021/04/21 05:45:20;;;;;;;11.23;7.67;;;;;;;4.92;74.31;100797.28;5056253;28;20219;-72
2021/04/21 05:48:29;;;;;;;11.50;7.70;;;;;;;5.11;74.28;100801.81;5063746;28;20207;-72
2021/04/21 05:51:33;;;;;;;9.33;7.10;;;;;;;5.35;74.23;100796.50;5063499;28;20677;-72
2021/04/21 05:54:45;;;;;;;10.10;6.53;;;;;;;5.54;74.47;100794.84;5066018;28;20552;-72
2021/04/21 05:58:05;;;;;;;12.43;6.17;;;;;;;5.73;74.01;100790.50;5059378;28;20201;-72
2021/04/21 06:01:02;;;;;;;10.47;7.17;;;;;;;5.90;73.86;100793.38;5066310;28;20609;-73
2021/04/21 06:03:32;;;;;;;9.50;6.77;;;;;;;6.07;73.82;100799.72;5061677;28;20458;-72
2021/04/21 06:06:02;;;;;;;11.67;6.67;;;;;;;6.22;73.35;100799.94;5063068;28;20211;-72
2021/04/21 06:08:30;;;;;;;7.80;5.97;;;;;;;6.40;73.09;100795.63;5068843;28;20221;-72
2021/04/21 06:10:57;;;;;;;8.97;6.53;;;;;;;6.54;72.49;100789.72;5069221;28;20209;-72
2021/04/21 06:13:28;;;;;;;9.90;6.03;;;;;;;6.72;72.71;100799.47;5068623;28;20211;-72
2021/04/21 06:15:55;;;;;;;11.83;6.43;;;;;;;6.89;72.26;100802.22;5061021;28;20196;-72
2021/04/21 06:18:22;;;;;;;9.87;5.97;;;;;;;7.06;72.26;100797.94;5067929;28;20221;-72
2021/04/21 06:20:49;;;;;;;10.10;6.73;;;;;;;7.26;71.85;100797.88;5067528;28;20209;-73
2021/04/21 06:23:17;;;;;;;8.77;6.60;;;;;;;7.45;70.72;100803.16;5067799;28;20212;-73
2021/04/21 06:25:46;;;;;;;9.33;6.97;;;;;;;7.63;71.35;100805.78;5067366;28;20209;-72
2021/04/21 06:28:15;;;;;;;7.67;6.27;;;;;;;7.83;70.08;100802.16;5062688;28;20308;-73
2021/04/21 06:30:43;;;;;;;9.67;6.43;;;;;;;8.01;69.36;100797.72;5059516;28;20244;-72
2021/04/21 06:33:10;;;;;;;12.47;7.60;;;;;;;8.17;69.33;100800.44;5061816;28;20243;-73
2021/04/21 06:35:37;;;;;;;10.07;6.53;;;;;;;8.34;69.03;100804.00;5058425;28;20242;-73
2021/04/21 06:38:05;;;;;;;9.83;6.60;;;;;;;8.51;68.41;100799.59;5059075;28;20204;-72
2021/04/21 06:40:33;;;;;;;9.03;6.10;;;;;;;8.66;67.63;100810.25;5057105;28;20221;-73
2021/04/21 06:43:00;;;;;;;11.50;6.03;;;;;;;8.82;67.06;100797.03;5058859;28;20193;-72
2021/04/21 06:45:27;;;;;;;7.43;5.73;;;;;;;9.01;66.97;100808.38;5056613;28;20584;-73
2021/04/21 06:47:54;;;;;;;8.43;5.90;;;;;;;9.18;66.21;100795.97;5058865;28;20673;-73
2021/04/21 06:50:27;;;;;;;9.53;5.57;;;;;;;9.34;65.28;100797.69;5056840;28;20205;-73
2021/04/21 06:52:58;;;;;;;9.30;5.30;;;;;;;9.53;65.05;100794.84;5057436;28;20206;-72
2021/04/21 06:55:24;;;;;;;7.33;5.20;;;;;;;9.67;64.08;100802.88;5056410;28;20690;-73
2021/04/21 06:57:51;;;;;;;7.57;6.47;;;;;;;9.83;63.08;100802.03;5057004;28;20213;-71
2021/04/21 07:00:19;;;;;;;8.60;5.80;;;;;;;10.00;62.45;100804.56;5058034;28;20679;-73
2021/04/21 07:02:48;;;;;;;8.27;5.40;;;;;;;10.18;62.40;100792.00;5056038;28;20205;-73
2021/04/21 07:05:35;;;;;;;6.97;5.70;;;;;;;10.38;61.39;100803.19;5056931;28;20690;-72
2021/04/21 07:08:06;;;;;;;7.97;6.30;;;;;;;10.57;60.94;100804.75;5057554;28;20205;-73
2021/04/21 07:10:34;;;;;;;9.53;5.70;;;;;;;10.73;59.75;100802.84;5054038;28;20209;-72
2021/04/21 07:13:02;;;;;;;7.67;5.27;;;;;;;10.85;59.20;100801.22;5056738;28;20251;-72
2021/04/21 07:15:30;;;;;;;7.23;4.83;;;;;;;11.00;58.70;100801.13;5056422;28;20646;-73
2021/04/21 07:17:57;;;;;;;7.60;5.20;;;;;;;11.14;57.89;100803.78;5057759;28;20296;-73
2021/04/21 07:20:24;;;;;;;6.80;4.63;;;;;;;11.32;57.37;100806.22;5056572;28;20233;-71
2021/04/21 07:22:51;;;;;;;8.57;5.00;;;;;;;11.45;56.00;100801.84;5058464;28;20263;-73
2021/04/21 07:25:18;;;;;;;6.30;4.40;;;;;;;11.57;55.36;100798.38;5058588;28;20681;-73
2021/04/21 07:27:48;;;;;;;6.20;5.03;;;;;;;11.73;54.79;100806.22;5057093;28;20202;-73
2021/04/21 07:30:23;;;;;;;5.60;4.27;;;;;;;11.85;53.39;100804.56;5064389;28;20801;-74
2021/04/21 07:32:50;;;;;;;8.10;4.60;;;;;;;11.97;52.98;100798.44;5058607;28;20243;-73
2021/04/21 07:35:18;;;;;;;8.53;5.03;;;;;;;12.12;52.34;100806.28;5064915;28;20591;-70
2021/04/21 07:37:45;;;;;;;6.63;4.77;;;;;;;12.26;52.08;100805.34;5059105;28;20268;-73
2021/04/21 07:40:32;;;;;;;8.87;5.00;;;;;;;12.42;51.48;100814.03;5060391;28;20258;-74
2021/04/21 07:43:14;;;;;;;8.37;4.93;;;;;;;12.59;50.96;100796.81;5062603;28;20221;-73
2021/04/21 07:45:53;;;;;;;7.67;5.70;;;;;;;12.76;49.83;100807.19;5060270;28;20225;-73
2021/04/21 07:48:43;;;;;;;7.60;4.97;;;;;;;12.90;49.47;100806.22;5067536;28;20714;-72
2021/04/21 07:51:46;;;;;;;6.67;5.40;;;;;;;13.06;49.50;100812.22;5061301;28;20206;-72
2021/04/21 07:54:23;;;;;;;7.30;5.93;;;;;;;13.24;49.05;100814.56;5056983;28;20214;-73
2021/04/21 07:56:55;;;;;;;8.97;5.77;;;;;;;13.36;48.83;100801.16;5062532;28;20216;-73
2021/04/21 07:59:23;;;;;;;10.97;5.47;;;;;;;13.50;48.00;100808.19;5061427;28;20230;-73
2021/04/21 08:01:50;;;;;;;9.10;5.73;;;;;;;13.63;47.88;100814.34;5059230;28;20669;-73
2021/04/21 08:04:20;;;;;;;6.37;5.40;;;;;;;13.75;47.42;100816.13;5057494;28;20720;-73
2021/04/21 08:06:48;;;;;;;7.63;5.70;;;;;;;13.87;48.09;100809.84;5056739;28;20215;-73
2021/04/21 08:09:14;;;;;;;6.23;5.50;;;;;;;13.99;47.47;100799.19;5057642;28;20756;-73
2021/04/21 08:11:40;;;;;;;8.90;5.60;;;;;;;14.13;47.93;100807.06;5058191;28;20213;-73
2021/04/21 08:14:06;;;;;;;6.57;5.20;;;;;;;14.28;47.44;100805.88;5055160;28;20556;-72
2021/04/21 08:16:35;;;;;;;10.27;6.20;;;;;;;14.43;47.32;100809.25;5059168;28;20213;-73
2021/04/21 08:19:11;;;;;;;9.23;6.30;;;;;;;14.56;46.85;100807.31;5054521;28;20233;-73
2021/04/21 08:21:40;;;;;;;7.90;5.80;;;;;;;14.68;46.01;100808.22;5054928;28;20201;-72
2021/04/21 08:24:07;;;;;;;8.33;6.00;;;;;;;14.78;45.42;100811.88;5053614;28;20220;-69
2021/04/21 08:26:33;;;;;;;9.00;6.50;;;;;;;14.86;45.42;100812.13;5055041;28;20211;-70
2021/04/21 08:29:00;;;;;;;7.80;6.20;;;;;;;14.99;45.31;100809.34;5056016;28;20247;-70
2021/04/21 08:31:28;;;;;;;11.17;6.63;;;;;;;15.12;44.16;100804.69;5054900;28;20205;-72
2021/04/21 08:33:54;;;;;;;12.07;6.73;;;;;;;15.20;43.63;100802.28;5055509;28;20800;-70
2021/04/21 08:36:20;;;;;;;9.00;6.60;;;;;;;15.29;43.49;100804.19;5052900;28;20210;-70
2021/04/21 08:38:47;;;;;;;11.43;6.73;;;;;;;15.40;43.03;100801.53;5052792;28;20261;-69
2021/04/21 08:41:16;;;;;;;9.97;6.90;;;;;;;15.50;43.06;100804.28;5053912;28;20204;-70
2021/04/21 08:43:46;;;;;;;9.67;6.60;;;;;;;15.58;42.30;100812.63;5053908;28;20210;-73
2021/04/21 08:46:12;;;;;;;10.30;6.60;;;;;;;15.68;42.07;100808.19;5057004;28;20300;-73
2021/04/21 08:48:40;;;;;;;7.73;6.60;;;;;;;15.76;41.60;100807.56;5056741;28;20217;-73
2021/04/21 08:51:07;;;;;;;9.60;5.80;;;;;;;15.86;41.00;100811.19;5066560;28;20207;-73
2021/04/21 08:53:36;;;;;;;7.57;5.23;;;;;;;15.89;39.10;100810.94;5062733;28;20584;-73
2021/04/21 08:56:05;;;;;;;8.30;5.77;;;;;;;15.94;38.82;100798.81;5061742;28;20201;-72
2021/04/21 08:58:33;;;;;;;6.63;5.10;;;;;;;16.06;38.60;100806.84;5064846;28;20217;-72
2021/04/21 09:00:59;;;;;;;8.37;6.10;;;;;;;16.23;39.27;100809.81;5065971;28;20209;-72
2021/04/21 09:03:26;;;;;;;7.03;5.37;;;;;;;16.38;37.64;100801.44;5064675;28;20259;-71
2021/04/21 09:05:52;;;;;;;6.13;5.53;;;;;;;16.43;36.59;100805.44;5061923;28;20205;-72
2021/04/21 09:08:20;;;;;;;7.40;5.50;;;;;;;16.54;36.66;100813.44;5063600;28;20290;-72
2021/04/21 09:10:47;;;;;;;8.07;5.63;;;;;;;16.66;35.89;100820.47;5063435;28;20203;-72
2021/04/21 09:13:14;;;;;;;7.77;6.43;;;;;;;16.78;36.23;100813.19;5065889;28;20216;-72
2021/04/21 09:15:42;;;;;;;7.77;5.57;;;;;;;16.91;35.90;100811.13;5063013;28;20209;-72
2021/04/21 09:18:08;;;;;;;9.30;5.63;;;;;;;16.98;35.53;100809.63;5065491;28;20225;-72
2021/04/21 09:20:44;;;;;;;7.03;5.23;;;;;;;17.05;35.37;100806.38;5062388;28;20645;-72
2021/04/21 09:23:14;;;;;;;9.10;5.30;;;;;;;17.11;34.82;100814.78;5063081;28;20672;-72
2021/04/21 09:25:41;;;;;;;6.70;4.87;;;;;;;17.18;33.83;100815.09;5064176;28;20199;-72
2021/04/21 09:28:08;;;;;;;9.33;4.80;;;;;;;17.23;33.32;100811.00;5059011;28;21067;-73
2021/04/21 09:30:37;;;;;;;8.40;4.67;;;;;;;17.26;33.03;100810.72;5064642;28;20208;-72
2021/04/21 09:33:04;;;;;;;6.23;4.70;;;;;;;17.32;32.75;100812.03;5062526;28;20210;-72
2021/04/21 09:35:33;;;;;;;6.90;4.63;;;;;;;17.41;32.34;100805.81;5061104;28;20203;-73
2021/04/21 09:38:04;;;;;;;6.87;4.67;;;;;;;17.48;31.88;100803.44;5064610;28;20214;-73
2021/04/21 09:40:38;;;;;;;6.57;4.90;;;;;;;17.56;31.62;100800.88;5090448;23;20239;-67
2021/04/21 09:43:06;;;;;;;6.50;3.97;;;;;;;17.65;30.96;100792.03;5051745;28;20244;-66
2021/04/21 09:45:38;;;;;;;6.33;3.63;;;;;;;17.74;30.27;100804.63;5060814;28;20208;-67
2021/04/21 09:48:10;;;;;;;6.50;3.60;;;;;;;17.82;30.17;100796.72;5064942;28;20583;-66
2021/04/21 09:50:37;;;;;;;7.33;3.53;;;;;;;17.96;30.38;100798.16;5061940;28;20226;-67
2021/04/21 09:53:18;;;;;;;6.60;3.60;;;;;;;18.09;29.57;100797.91;5055130;28;20206;-67
2021/04/21 09:55:58;;;;;;;5.17;3.67;;;;;;;18.18;29.06;100791.63;5051327;28;20262;-69
2021/04/21 09:58:31;;;;;;;5.37;3.53;;;;;;;18.30;29.34;100798.56;5055566;28;20204;-67
2021/04/21 10:00:58;;;;;;;5.33;3.03;;;;;;;18.38;28.15;100794.19;5056088;28;20206;-66
2021/04/21 10:03:24;;;;;;;3.63;2.90;;;;;;;18.37;27.78;100792.47;5057937;28;20213;-67
2021/04/21 10:05:50;;;;;;;4.40;2.83;;;;;;;18.44;28.01;100798.16;5059506;28;20228;-67
2021/04/21 10:08:18;;;;;;;3.60;2.47;;;;;;;18.47;26.93;100795.13;5060027;28;20558;-67
2021/04/21 10:10:46;;;;;;;3.37;2.60;;;;;;;18.45;26.81;100797.13;5059957;28;20745;-67
2021/04/21 10:13:15;;;;;;;3.90;2.93;;;;;;;18.51;26.72;100788.47;5061620;28;20209;-66
2021/04/21 10:15:41;;;;;;;3.73;2.33;;;;;;;18.61;26.23;100799.28;5059796;28;20201;-67
2021/04/21 10:18:09;;;;;;;4.63;2.70;;;;;;;18.63;26.07;100798.13;5060013;28;20208;-71
2021/04/21 10:20:35;;;;;;;5.30;2.67;;;;;;;18.62;26.20;100788.34;5056391;28;20318;-68
2021/04/21 10:23:04;;;;;;;5.43;3.23;;;;;;;18.64;26.58;100794.44;5062404;28;20574;-67
2021/04/21 10:25:31;;;;;;;3.87;3.47;;;;;;;18.68;26.39;100795.00;5062906;28;20209;-68
2021/04/21 10:27:58;;;;;;;4.70;3.20;;;;;;;18.68;26.41;100793.16;5061258;28;20201;-71
2021/04/21 10:30:25;;;;;;;6.03;3.63;;;;;;;18.70;26.33;100795.69;5060825;28;20225;-68
2021/04/21 10:32:51;;;;;;;4.97;3.70;;;;;;;18.76;26.89;100796.97;5059456;28;20687;-68
2021/04/21 10:35:18;;;;;;;5.07;3.37;;;;;;;18.82;27.10;100785.56;5056898;28;20224;-67
2021/04/21 10:37:44;;;;;;;6.53;3.20;;;;;;;18.84;27.05;100802.47;5058403;28;20261;-68
2021/04/21 10:40:12;;;;;;;5.97;4.10;;;;;;;18.86;27.42;100787.00;5058476;28;20237;-68
2021/04/21 10:42:50;;;;;;;6.63;4.10;;;;;;;18.91;27.61;100795.50;5062265;28;20209;-69
2021/04/21 10:45:17;;;;;;;5.40;3.33;;;;;;;18.94;27.24;100789.81;5060174;28;20229;-69
2021/04/21 10:47:45;;;;;;;5.70;3.17;;;;;;;19.00;26.97;100794.59;5060261;28;20220;-70
2021/04/21 10:50:12;;;;;;;8.00;3.53;;;;;;;19.00;26.62;100794.59;5058471;28;20711;-69
2021/04/21 10:52:41;;;;;;;4.30;3.43;;;;;;;18.99;26.07;100795.59;5061990;28;20217;-69
2021/04/21 10:55:33;;;;;;;5.17;3.60;;;;;;;19.01;26.99;100799.00;5064455;28;20207;-68
2021/04/21 10:58:00;;;;;;;5.40;3.97;;;;;;;19.02;27.05;100793.47;5060082;28;20210;-69
2021/04/21 11:00:28;;;;;;;4.67;3.33;;;;;;;19.06;27.79;100791.31;5062763;28;20230;-68
2021/04/21 11:03:06;;;;;;;4.93;3.40;;;;;;;19.08;27.48;100797.44;5063276;28;20206;-70
2021/04/21 11:05:45;;;;;;;5.27;3.27;;;;;;;19.08;27.16;100792.03;5065189;28;20202;-69
2021/04/21 11:08:14;;;;;;;4.53;3.20;;;;;;;19.08;26.79;100792.03;5063619;28;20203;-69
2021/04/21 11:10:50;;;;;;;5.83;3.50;;;;;;;19.07;26.72;100790.31;5058714;28;20222;-68
2021/04/21 11:13:36;;;;;;;5.33;3.80;;;;;;;19.03;26.70;100781.66;5057256;28;20289;-69
2021/04/21 11:16:05;;;;;;;4.77;3.27;;;;;;;19.03;26.81;100789.78;5054329;28;20226;-70
2021/04/21 11:18:32;;;;;;;5.07;3.83;;;;;;;19.08;27.10;100786.63;5055658;28;20214;-70
2021/04/21 11:21:05;;;;;;;6.17;4.10;;;;;;;19.12;27.00;100785.34;5057928;28;20238;-69
2021/04/21 11:23:50;;;;;;;6.17;3.47;;;;;;;19.15;27.09;100787.75;5055404;28;20715;-69
2021/04/21 11:26:36;;;;;;;8.23;3.70;;;;;;;19.18;27.08;100783.88;5053147;28;20301;-69
2021/04/21 11:29:04;;;;;;;7.20;3.37;;;;;;;19.20;26.99;100784.56;5060879;28;20221;-68
2021/04/21 11:32:08;;;;;;;5.03;3.23;;;;;;;19.18;27.36;100779.31;5057410;28;20206;-67
2021/04/21 11:34:35;;;;;;;4.53;3.97;;;;;;;19.20;27.37;100779.19;5060391;28;20230;-68
2021/04/21 11:37:04;;;;;;;6.27;3.80;;;;;;;19.22;27.20;100779.88;5061587;28;20204;-68
2021/04/21 11:42:44;;;;;;;4.17;3.43;;;;;;;19.14;26.43;100780.66;5063565;28;20209;-68
2021/04/21 11:45:22;;;;;;;3.83;3.10;;;;;;;19.07;26.46;100779.53;5058808;28;20241;-68
2021/04/21 11:47:50;;;;;;;6.87;3.87;;;;;;;19.08;25.83;100782.09;5065594;28;20241;-68
2021/04/21 11:50:21;;;;;;;6.27;2.90;;;;;;;19.03;25.91;100778.13;5055898;28;20222;-69
2021/04/21 11:52:56;;;;;;;5.07;3.60;;;;;;;18.98;26.31;100785.84;5057333;28;20523;-69
2021/04/21 11:55:33;;;;;;;4.33;3.67;;;;;;;18.98;26.70;100769.63;5055831;28;20201;-68
2021/04/21 11:58:01;;;;;;;5.27;3.80;;;;;;;18.96;26.62;100774.34;5058429;28;20197;-68